Time;durP1;ratioP1;P1;durP2;ratioP2;P2;SDS_P1;SDS_P2;PMS_P1;PMS_P2;Temp;Humidity;BMP_temperature;BMP_pressure;BME280_temperature;BME280_humidity;BME280_pressure;Samples;Min_cycle;Max_cycle;Signal;HPM_P1;HPM_P2
2021/07/16 00:01:18;;;;;;;;;;;14.80;99.90;;;;;;5088288;28;19909;-77
2021/07/16 00:03:43;;;;;;;;;;;14.70;99.90;;;;;;5088875;28;20332;-70
2021/07/16 00:06:09;;;;;;;;;;;14.70;99.90;;;;;;5085789;28;19912;-71
2021/07/16 00:08:34;;;;;;;;;;;14.70;99.90;;;;;;5088144;28;19915;-75
2021/07/16 00:11:00;;;;;;;;;;;14.60;99.90;;;;;;5079511;28;19909;-71
2021/07/16 00:13:25;;;;;;;;;;;14.60;99.90;;;;;;5088162;28;19909;-71
2021/07/16 00:15:51;;;;;;;;;;;14.50;99.90;;;;;;5086730;28;20357;-71
2021/07/16 00:18:16;;;;;;;;;;;14.50;99.90;;;;;;5081104;28;19915;-74
2021/07/16 00:20:44;;;;;;;;;;;14.50;99.90;;;;;;5088018;28;20308;-74
2021/07/16 00:23:13;;;;;;;;;;;14.40;99.90;;;;;;5084014;28;20362;-71
2021/07/16 00:25:38;;;;;;;;;;;14.40;99.90;;;;;;5087762;28;20287;-72
2021/07/16 00:28:04;;;;;;;;;;;14.30;99.90;;;;;;5076923;28;20004;-72
2021/07/16 00:30:30;;;;;;;;;;;14.30;99.90;;;;;;5094774;28;19915;-72
2021/07/16 00:32:56;;;;;;;;;;;14.10;99.90;;;;;;5095769;28;20366;-72
2021/07/16 00:35:21;;;;;;;;;;;14.10;99.90;;;;;;5087740;28;19995;-72
2021/07/16 00:37:47;;;;;;;;;;;14.00;99.90;;;;;;5087186;28;19915;-72
2021/07/16 00:40:12;;;;;;;;;;;14.00;99.90;;;;;;5082253;28;19908;-72
2021/07/16 00:42:39;;;;;;;;;;;14.00;99.90;;;;;;5086281;28;19908;-72
2021/07/16 00:45:06;;;;;;;;;;;14.00;99.90;;;;;;5088512;28;19923;-72
2021/07/16 00:47:31;;;;;;;;;;;13.90;99.90;;;;;;5107471;28;20322;-72
2021/07/16 00:49:57;;;;;;;;;;;13.90;99.90;;;;;;5105447;28;19956;-72
2021/07/16 00:52:22;;;;;;;;;;;13.90;99.90;;;;;;5101971;28;19908;-73
2021/07/16 00:54:48;;;;;;;;;;;13.90;99.90;;;;;;5108053;28;19909;-72
2021/07/16 00:57:14;;;;;;;;;;;13.90;99.90;;;;;;5098461;28;19915;-72
2021/07/16 00:59:39;;;;;;;;;;;13.80;99.90;;;;;;5094466;28;19908;-72
2021/07/16 01:02:05;;;;;;;;;;;13.80;99.90;;;;;;5094460;28;19916;-72
2021/07/16 01:04:30;;;;;;;;;;;13.80;99.90;;;;;;5094411;28;19919;-72
2021/07/16 01:06:56;;;;;;;;;;;13.80;99.90;;;;;;5092418;28;19908;-72
2021/07/16 01:09:21;;;;;;;;;;;13.80;99.90;;;;;;5094340;28;19954;-72
2021/07/16 01:11:48;;;;;;;;;;;13.80;99.90;;;;;;5094173;28;19908;-72
2021/07/16 01:14:13;;;;;;;;;;;13.80;99.90;;;;;;5092976;28;20016;-72
2021/07/16 01:16:39;;;;;;;;;;;13.80;99.90;;;;;;5093781;28;20388;-72
2021/07/16 01:19:05;;;;;;;;;;;13.80;99.90;;;;;;5094551;28;19908;-72
2021/07/16 01:21:32;;;;;;;;;;;13.70;99.90;;;;;;5086281;28;20003;-72
2021/07/16 01:23:58;;;;;;;;;;;13.70;99.90;;;;;;5093689;28;19916;-72
2021/07/16 01:26:24;;;;;;;;;;;13.70;99.90;;;;;;5093617;28;19912;-73
2021/07/16 01:28:50;;;;;;;;;;;13.70;99.90;;;;;;5093822;28;19908;-72
2021/07/16 01:31:16;;;;;;;;;;;13.60;99.90;;;;;;5093990;28;19916;-72
2021/07/16 01:33:42;;;;;;;;;;;13.60;99.90;;;;;;5093668;28;19908;-72
2021/07/16 01:36:07;;;;;;;;;;;13.60;99.90;;;;;;5093296;28;19961;-72
2021/07/16 01:38:33;;;;;;;;;;;13.60;99.90;;;;;;5093456;28;19915;-72
2021/07/16 01:40:58;;;;;;;;;;;13.60;99.90;;;;;;5091129;28;19916;-71
2021/07/16 01:43:25;;;;;;;;;;;13.70;99.90;;;;;;5094067;28;19908;-72
2021/07/16 01:45:51;;;;;;;;;;;13.70;99.90;;;;;;5113587;28;19973;-72
2021/07/16 01:48:17;;;;;;;;;;;13.60;99.90;;;;;;5113531;28;19911;-72
2021/07/16 01:50:47;;;;;;;;;;;13.60;99.90;;;;;;5113663;28;19977;-72
2021/07/16 01:53:13;;;;;;;;;;;13.60;99.90;;;;;;5113933;28;20284;-72
2021/07/16 01:55:39;;;;;;;;;;;13.60;99.90;;;;;;5113569;28;19914;-72
2021/07/16 01:58:06;;;;;;;;;;;13.60;99.90;;;;;;5113174;28;20006;-72
2021/07/16 02:00:33;;;;;;;;;;;13.70;99.90;;;;;;5113692;28;19918;-72
2021/07/16 02:02:59;;;;;;;;;;;13.70;99.90;;;;;;5095696;28;19932;-72
2021/07/16 02:05:26;;;;;;;;;;;13.80;99.90;;;;;;5092676;28;19916;-72
2021/07/16 02:07:52;;;;;;;;;;;13.80;99.90;;;;;;5091959;28;19916;-72
2021/07/16 02:10:18;;;;;;;;;;;13.80;99.90;;;;;;5092659;28;20379;-72
2021/07/16 02:12:44;;;;;;;;;;;13.70;99.90;;;;;;5092941;28;19916;-72
2021/07/16 02:15:14;;;;;;;;;;;13.70;99.90;;;;;;5092790;28;20380;-72
2021/07/16 02:17:40;;;;;;;;;;;13.70;99.90;;;;;;5092377;28;19908;-71
2021/07/16 02:20:17;;;;;;;;;;;13.70;99.90;;;;;;5092670;28;19916;-72
2021/07/16 02:22:42;;;;;;;;;;;13.80;99.90;;;;;;5092894;28;19908;-72
2021/07/16 02:25:08;;;;;;;;;;;13.80;99.90;;;;;;5092535;28;19916;-72
2021/07/16 02:27:33;;;;;;;;;;;13.90;99.90;;;;;;5090893;28;19931;-72
2021/07/16 02:29:59;;;;;;;;;;;13.90;99.90;;;;;;5092473;28;19908;-72
2021/07/16 02:32:24;;;;;;;;;;;14.00;99.90;;;;;;5089693;28;20368;-72
2021/07/16 02:34:50;;;;;;;;;;;14.00;99.90;;;;;;5092219;28;19912;-72
2021/07/16 02:37:16;;;;;;;;;;;14.00;99.90;;;;;;5092023;28;19931;-71
2021/07/16 02:39:41;;;;;;;;;;;14.00;99.90;;;;;;5092258;28;19908;-72
2021/07/16 02:42:07;;;;;;;;;;;14.00;99.90;;;;;;5092441;28;19915;-72
2021/07/16 02:44:32;;;;;;;;;;;14.00;99.90;;;;;;5092054;28;19913;-72
2021/07/16 02:46:57;;;;;;;;;;;14.00;99.90;;;;;;5091880;28;19909;-72
2021/07/16 02:49:23;;;;;;;;;;;14.10;99.90;;;;;;5092243;28;20526;-72
2021/07/16 02:51:48;;;;;;;;;;;14.10;99.90;;;;;;5092122;28;19908;-72
2021/07/16 02:54:14;;;;;;;;;;;14.10;99.90;;;;;;5092125;28;20379;-72
2021/07/16 02:56:39;;;;;;;;;;;14.10;99.90;;;;;;5091695;28;19912;-72
2021/07/16 02:59:06;;;;;;;;;;;14.10;99.90;;;;;;5092253;28;20257;-72
2021/07/16 03:01:32;;;;;;;;;;;14.10;99.90;;;;;;5090269;28;20241;-72
2021/07/16 03:03:57;;;;;;;;;;;14.00;99.90;;;;;;5090720;28;20368;-72
2021/07/16 03:06:23;;;;;;;;;;;13.90;99.90;;;;;;5089955;28;20265;-72
2021/07/16 03:08:48;;;;;;;;;;;13.90;99.90;;;;;;5091896;28;19961;-72
2021/07/16 03:11:14;;;;;;;;;;;13.90;99.90;;;;;;5090531;28;19915;-72
2021/07/16 03:13:39;;;;;;;;;;;14.00;99.90;;;;;;5091743;28;19908;-72
2021/07/16 03:16:05;;;;;;;;;;;14.00;99.90;;;;;;5091145;28;20356;-72
2021/07/16 03:18:30;;;;;;;;;;;14.00;99.90;;;;;;5091744;28;19908;-72
2021/07/16 03:20:56;;;;;;;;;;;14.10;99.90;;;;;;5091425;28;19916;-72
2021/07/16 03:23:21;;;;;;;;;;;14.10;99.90;;;;;;5091771;28;19908;-72
2021/07/16 03:25:47;;;;;;;;;;;14.10;99.90;;;;;;5091381;28;19912;-72
2021/07/16 03:28:13;;;;;;;;;;;14.10;99.90;;;;;;5091365;28;19961;-72
2021/07/16 03:30:38;;;;;;;;;;;14.10;99.90;;;;;;5091364;28;20266;-72
2021/07/16 03:33:05;;;;;;;;;;;14.10;99.90;;;;;;5088866;28;19915;-72
2021/07/16 03:35:30;;;;;;;;;;;14.10;99.90;;;;;;5091170;28;19908;-72
2021/07/16 03:37:56;;;;;;;;;;;14.10;99.90;;;;;;5089772;28;20030;-72
2021/07/16 03:40:23;;;;;;;;;;;14.10;99.90;;;;;;5091420;28;19908;-72
2021/07/16 03:42:50;;;;;;;;;;;14.10;99.90;;;;;;5091612;28;20010;-72
2021/07/16 03:45:16;;;;;;;;;;;14.10;99.90;;;;;;5091366;28;19916;-72
2021/07/16 03:47:42;;;;;;;;;;;14.10;99.90;;;;;;5091019;28;19935;-72
2021/07/16 03:50:08;;;;;;;;;;;14.10;99.90;;;;;;5090958;28;20361;-72
2021/07/16 03:52:33;;;;;;;;;;;14.00;99.90;;;;;;5089627;28;19947;-72
2021/07/16 03:54:59;;;;;;;;;;;14.00;99.90;;;;;;5090410;28;20018;-73
2021/07/16 03:57:24;;;;;;;;;;;14.00;99.90;;;;;;5090888;28;19908;-73
2021/07/16 03:59:55;;;;;;;;;;;14.00;99.90;;;;;;5091341;28;20015;-72
2021/07/16 04:02:21;;;;;;;;;;;14.00;99.90;;;;;;5088806;28;19912;-72
2021/07/16 04:04:51;;;;;;;;;;;14.10;99.90;;;;;;5090952;28;19913;-72
2021/07/16 04:07:18;;;;;;;;;;;14.10;99.90;;;;;;5090938;28;19908;-72
2021/07/16 04:09:43;;;;;;;;;;;14.10;99.90;;;;;;5091345;28;19908;-72
2021/07/16 04:12:12;;;;;;;;;;;14.20;99.90;;;;;;5091294;28;19934;-72
2021/07/16 04:14:41;;;;;;;;;;;14.20;99.90;;;;;;5091131;28;19978;-72
2021/07/16 04:17:08;;;;;;;;;;;14.30;99.90;;;;;;5090615;28;19908;-72
2021/07/16 04:19:34;;;;;;;;;;;14.30;99.90;;;;;;5089841;28;20284;-73
2021/07/16 04:21:59;;;;;;;;;;;14.40;99.90;;;;;;5091280;28;19909;-72
2021/07/16 04:24:25;;;;;;;;;;;14.40;99.90;;;;;;5091070;28;19908;-72
2021/07/16 04:26:50;;;;;;;;;;;14.50;99.90;;;;;;5090566;28;19913;-72
2021/07/16 04:29:16;;;;;;;;;;;14.60;99.90;;;;;;5091150;28;19916;-72
2021/07/16 04:31:42;;;;;;;;;;;14.60;99.90;;;;;;5088050;28;19915;-72
2021/07/16 04:34:07;;;;;;;;;;;14.70;99.90;;;;;;5094666;28;19912;-72
2021/07/16 04:36:33;;;;;;;;;;;14.80;99.90;;;;;;5094352;28;19974;-72
2021/07/16 04:38:58;;;;;;;;;;;14.80;99.90;;;;;;5094758;28;19916;-72
2021/07/16 04:41:24;;;;;;;;;;;14.90;99.90;;;;;;5094721;28;20315;-72
2021/07/16 04:43:49;;;;;;;;;;;14.90;99.90;;;;;;5094736;28;19915;-72
2021/07/16 04:46:15;;;;;;;;;;;15.00;99.90;;;;;;5094113;28;19916;-72
2021/07/16 04:48:40;;;;;;;;;;;15.20;99.90;;;;;;5094614;28;19912;-72
2021/07/16 04:51:05;;;;;;;;;;;15.20;99.90;;;;;;5094612;28;20387;-72
2021/07/16 04:53:31;;;;;;;;;;;15.20;99.90;;;;;;5094469;28;19912;-72
2021/07/16 04:55:56;;;;;;;;;;;15.20;99.90;;;;;;5094426;28;20295;-72
2021/07/16 04:58:22;;;;;;;;;;;15.20;99.90;;;;;;5092778;28;19912;-72
2021/07/16 05:00:47;;;;;;;;;;;15.10;99.90;;;;;;5093163;28;19915;-72
2021/07/16 05:03:13;;;;;;;;;;;15.20;99.90;;;;;;5091515;28;20276;-72
2021/07/16 05:05:38;;;;;;;;;;;15.30;99.90;;;;;;5094193;28;19919;-72
2021/07/16 05:08:04;;;;;;;;;;;15.30;99.90;;;;;;5093879;28;20382;-72
2021/07/16 05:10:29;;;;;;;;;;;15.40;99.90;;;;;;5090942;28;19924;-72
2021/07/16 05:12:55;;;;;;;;;;;15.50;99.90;;;;;;5086315;28;19982;-72
2021/07/16 05:15:20;;;;;;;;;;;15.50;99.90;;;;;;5094092;28;19999;-72
2021/07/16 05:17:46;;;;;;;;;;;15.60;99.90;;;;;;5093378;28;19932;-72
2021/07/16 05:20:12;;;;;;;;;;;15.60;99.90;;;;;;5094049;28;19908;-72
2021/07/16 05:22:37;;;;;;;;;;;15.80;99.90;;;;;;5093937;28;20195;-72
2021/07/16 05:25:03;;;;;;;;;;;15.90;99.90;;;;;;5093842;28;20338;-72
2021/07/16 05:27:29;;;;;;;;;;;16.00;99.90;;;;;;5093420;28;19923;-72
2021/07/16 05:29:54;;;;;;;;;;;16.10;99.90;;;;;;5092541;28;19908;-72
2021/07/16 05:32:20;;;;;;;;;;;16.10;99.90;;;;;;5096841;28;20336;-72
2021/07/16 05:34:45;;;;;;;;;;;16.20;99.90;;;;;;5114065;28;19994;-72
2021/07/16 05:37:11;;;;;;;;;;;16.20;99.90;;;;;;5092619;28;19969;-72
2021/07/16 05:39:37;;;;;;;;;;;16.20;99.90;;;;;;5093740;28;20387;-72
2021/07/16 05:42:04;;;;;;;;;;;16.30;99.90;;;;;;5092411;28;19908;-72
2021/07/16 05:44:31;;;;;;;;;;;16.40;99.90;;;;;;5093451;28;19915;-73
2021/07/16 05:46:56;;;;;;;;;;;16.40;99.90;;;;;;5091778;28;20297;-72
2021/07/16 05:49:22;;;;;;;;;;;16.40;99.90;;;;;;5093546;28;19982;-73
2021/07/16 05:51:47;;;;;;;;;;;16.40;99.90;;;;;;5093312;28;19908;-72
2021/07/16 05:54:13;;;;;;;;;;;16.40;99.90;;;;;;5093342;28;19999;-72
2021/07/16 05:56:41;;;;;;;;;;;16.40;99.90;;;;;;5091628;28;19931;-72
2021/07/16 05:59:09;;;;;;;;;;;16.40;99.90;;;;;;5093330;28;19954;-72
2021/07/16 06:01:35;;;;;;;;;;;16.30;99.90;;;;;;5089969;28;19912;-72
2021/07/16 06:04:09;;;;;;;;;;;16.30;99.90;;;;;;5092439;28;19915;-72
2021/07/16 06:06:35;;;;;;;;;;;16.40;99.90;;;;;;5090857;28;19916;-72
2021/07/16 06:09:00;;;;;;;;;;;16.40;99.90;;;;;;5090688;28;20364;-72
2021/07/16 06:11:26;;;;;;;;;;;16.50;99.90;;;;;;5079960;28;19934;-72
2021/07/16 06:13:51;;;;;;;;;;;16.50;99.90;;;;;;5092808;28;19951;-72
2021/07/16 06:16:17;;;;;;;;;;;16.50;99.90;;;;;;5092321;28;19952;-72
2021/07/16 06:18:42;;;;;;;;;;;16.60;99.90;;;;;;5092786;28;19915;-72
2021/07/16 06:21:08;;;;;;;;;;;16.60;99.90;;;;;;5073574;28;20682;-72
2021/07/16 06:23:34;;;;;;;;;;;16.70;99.90;;;;;;5090951;28;19916;-72
2021/07/16 06:25:59;;;;;;;;;;;16.70;99.90;;;;;;5092383;28;19912;-72
2021/07/16 06:28:25;;;;;;;;;;;16.80;99.90;;;;;;5084075;28;19931;-72
2021/07/16 06:30:50;;;;;;;;;;;16.90;99.90;;;;;;5072219;28;19912;-72
2021/07/16 06:33:16;;;;;;;;;;;17.00;99.90;;;;;;5085438;28;20011;-72
2021/07/16 06:35:42;;;;;;;;;;;17.10;99.90;;;;;;5085250;28;20274;-72
2021/07/16 06:38:07;;;;;;;;;;;17.20;99.90;;;;;;5084793;28;19915;-72
2021/07/16 06:40:33;;;;;;;;;;;17.20;99.90;;;;;;5092120;28;19999;-72
2021/07/16 06:42:58;;;;;;;;;;;17.30;99.90;;;;;;5083791;28;19909;-72
2021/07/16 06:45:24;;;;;;;;;;;17.30;99.90;;;;;;5085707;28;19965;-72
2021/07/16 06:47:49;;;;;;;;;;;17.40;99.90;;;;;;5088894;28;20253;-72
2021/07/16 06:50:15;;;;;;;;;;;17.50;99.90;;;;;;5090146;28;20208;-72
2021/07/16 06:52:40;;;;;;;;;;;17.50;99.90;;;;;;5091669;28;19916;-72
2021/07/16 06:55:06;;;;;;;;;;;17.40;99.90;;;;;;5087991;28;19908;-72
2021/07/16 06:57:32;;;;;;;;;;;17.30;99.90;;;;;;5090967;28;19915;-72
2021/07/16 06:59:57;;;;;;;;;;;17.50;99.90;;;;;;5090712;28;19908;-72
2021/07/16 07:02:23;;;;;;;;;;;17.70;99.90;;;;;;5095333;28;19911;-72
2021/07/16 07:04:48;;;;;;;;;;;17.70;99.90;;;;;;5111853;28;19918;-72
2021/07/16 07:07:14;;;;;;;;;;;18.00;99.90;;;;;;5111221;28;20044;-72
2021/07/16 07:09:39;;;;;;;;;;;18.20;99.90;;;;;;5101595;28;20135;-72
2021/07/16 07:12:05;;;;;;;;;;;18.40;99.90;;;;;;5091509;28;19955;-72
2021/07/16 07:14:31;;;;;;;;;;;18.50;99.90;;;;;;5091284;28;19912;-72
2021/07/16 07:16:56;;;;;;;;;;;18.60;99.90;;;;;;5091110;28;19909;-73
2021/07/16 07:19:22;;;;;;;;;;;18.60;99.90;;;;;;5089696;28;19919;-73
2021/07/16 07:21:47;;;;;;;;;;;19.10;99.90;;;;;;5087579;28;19954;-73
2021/07/16 07:24:13;;;;;;;;;;;20.00;99.90;;;;;;5081384;28;19912;-73
2021/07/16 07:26:38;;;;;;;;;;;20.80;99.90;;;;;;5068080;28;20286;-73
2021/07/16 07:29:04;;;;;;;;;;;21.30;99.90;;;;;;5067868;28;19909;-72
2021/07/16 07:31:29;;;;;;;;;;;21.30;99.90;;;;;;5067941;28;19909;-72
2021/07/16 07:33:55;;;;;;;;;;;20.90;99.90;;;;;;5086445;28;19922;-72
2021/07/16 07:36:20;;;;;;;;;;;20.80;99.90;;;;;;5087490;28;19993;-73
2021/07/16 07:38:46;;;;;;;;;;;20.70;99.90;;;;;;5090887;28;19915;-73
2021/07/16 07:41:11;;;;;;;;;;;20.70;99.90;;;;;;5089552;28;19939;-73
2021/07/16 07:43:37;;;;;;;;;;;20.60;99.90;;;;;;5090870;28;19909;-73
2021/07/16 07:46:02;;;;;;;;;;;20.50;99.90;;;;;;5090604;28;19965;-72
2021/07/16 07:48:28;;;;;;;;;;;20.40;99.90;;;;;;5091516;28;19916;-72
2021/07/16 07:50:53;;;;;;;;;;;20.20;99.90;;;;;;5087523;28;19908;-71
2021/07/16 07:53:19;;;;;;;;;;;20.00;99.90;;;;;;5086891;28;20412;-73
2021/07/16 07:55:44;;;;;;;;;;;19.80;99.90;;;;;;5089441;28;20288;-73
2021/07/16 07:58:10;;;;;;;;;;;19.60;99.90;;;;;;5089405;28;19908;-73
2021/07/16 08:00:35;;;;;;;;;;;19.60;99.90;;;;;;5073149;28;20420;-73
2021/07/16 08:03:01;;;;;;;;;;;19.50;99.90;;;;;;5088158;28;19912;-73
2021/07/16 08:05:26;;;;;;;;;;;19.40;99.90;;;;;;5089753;28;19923;-73
2021/07/16 08:07:52;;;;;;;;;;;19.60;99.90;;;;;;5083614;28;19913;-72
2021/07/16 08:10:19;;;;;;;;;;;20.30;99.90;;;;;;5082490;28;20284;-73
2021/07/16 08:12:45;;;;;;;;;;;21.20;99.90;;;;;;5087663;28;20384;-72
2021/07/16 08:15:11;;;;;;;;;;;21.60;99.90;;;;;;5079796;28;19983;-72
2021/07/16 08:17:37;;;;;;;;;;;21.70;99.90;;;;;;5086501;28;20288;-72
2021/07/16 08:20:04;;;;;;;;;;;21.70;99.90;;;;;;5088614;28;19908;-73
2021/07/16 08:22:29;;;;;;;;;;;21.90;99.90;;;;;;5081418;28;19908;-73
2021/07/16 08:24:55;;;;;;;;;;;21.90;99.90;;;;;;5073431;28;19935;-73
2021/07/16 08:27:20;;;;;;;;;;;21.90;99.90;;;;;;5077261;28;19912;-72
2021/07/16 08:29:46;;;;;;;;;;;21.50;99.90;;;;;;5079727;28;20345;-72
2021/07/16 08:32:11;;;;;;;;;;;21.10;99.90;;;;;;5078738;28;19912;-73
2021/07/16 08:34:37;;;;;;;;;;;20.70;99.90;;;;;;5087578;28;20411;-72
2021/07/16 08:37:02;;;;;;;;;;;20.40;99.90;;;;;;5077405;28;19958;-72
2021/07/16 08:39:28;;;;;;;;;;;20.20;99.90;;;;;;5094338;28;19920;-72
2021/07/16 08:41:53;;;;;;;;;;;20.10;99.90;;;;;;5078828;28;19934;-72
2021/07/16 08:44:19;;;;;;;;;;;20.10;99.90;;;;;;5086351;28;19923;-73
2021/07/16 08:46:46;;;;;;;;;;;20.10;99.90;;;;;;5087467;28;19912;-72
2021/07/16 08:49:12;;;;;;;;;;;20.10;99.90;;;;;;5094403;28;19912;-72
2021/07/16 08:51:38;;;;;;;;;;;19.80;99.90;;;;;;5094588;28;20250;-72
2021/07/16 08:54:03;;;;;;;;;;;19.60;99.90;;;;;;5094307;28;19908;-72
2021/07/16 08:56:35;;;;;;;;;;;19.60;99.90;;;;;;5093970;28;19908;-72
2021/07/16 08:59:03;;;;;;;;;;;19.60;99.90;;;;;;5093093;28;19951;-73
2021/07/16 09:01:29;;;;;;;;;;;19.70;99.90;;;;;;5093209;28;19916;-73
2021/07/16 09:03:55;;;;;;;;;;;19.80;99.90;;;;;;5094190;28;20144;-72
2021/07/16 09:06:41;;;;;;;;;;;20.10;99.90;;;;;;5114213;28;20269;-73
2021/07/16 09:09:06;;;;;;;;;;;20.20;99.90;;;;;;5105255;28;19908;-73
2021/07/16 09:11:37;;;;;;;;;;;20.70;99.90;;;;;;5089765;28;19938;-73
2021/07/16 09:14:02;;;;;;;;;;;21.10;99.90;;;;;;5093918;28;19912;-73
2021/07/16 09:16:28;;;;;;;;;;;21.60;99.90;;;;;;5093209;28;19912;-72
2021/07/16 09:18:56;;;;;;;;;;;22.00;99.90;;;;;;5093503;28;19912;-73
2021/07/16 09:21:22;;;;;;;;;;;22.20;99.90;;;;;;5093739;28;19914;-73
2021/07/16 09:23:47;;;;;;;;;;;22.40;99.90;;;;;;5093653;28;20357;-73
2021/07/16 09:26:15;;;;;;;;;;;22.60;99.90;;;;;;5093137;28;19957;-73
2021/07/16 09:28:42;;;;;;;;;;;22.80;99.90;;;;;;5093759;28;19908;-73
2021/07/16 09:31:18;;;;;;;;;;;22.80;99.90;;;;;;5093588;28;20403;-73
2021/07/16 09:33:45;;;;;;;;;;;22.60;99.90;;;;;;5090464;28;19970;-73
2021/07/16 09:36:12;;;;;;;;;;;22.20;99.90;;;;;;5096013;28;19916;-73
2021/07/16 09:38:38;;;;;;;;;;;21.90;99.90;;;;;;5113395;28;19908;-72
2021/07/16 09:41:08;;;;;;;;;;;21.70;99.90;;;;;;5113944;28;19915;-73
2021/07/16 09:43:34;;;;;;;;;;;21.60;99.90;;;;;;5112220;28;19990;-73
2021/07/16 09:46:02;;;;;;;;;;;21.80;99.90;;;;;;5113341;28;20006;-73
2021/07/16 09:48:35;;;;;;;;;;;22.10;99.90;;;;;;5113624;28;19911;-73
2021/07/16 09:51:11;;;;;;;;;;;22.40;99.90;;;;;;5113695;28;20330;-73
2021/07/16 09:53:51;;;;;;;;;;;22.90;99.90;;;;;;5113309;28;19960;-73
2021/07/16 09:56:27;;;;;;;;;;;23.10;99.90;;;;;;5112974;28;20337;-73
2021/07/16 09:59:08;;;;;;;;;;;23.30;99.90;;;;;;5113439;28;19960;-73
2021/07/16 10:01:35;;;;;;;;;;;23.40;99.90;;;;;;5097340;28;20257;-73
2021/07/16 10:04:01;;;;;;;;;;;23.50;99.90;;;;;;5092151;28;19912;-72
2021/07/16 10:06:30;;;;;;;;;;;23.70;99.90;;;;;;5092450;28;19918;-73
2021/07/16 10:08:56;;;;;;;;;;;24.10;99.90;;;;;;5088815;28;19908;-73
2021/07/16 10:11:23;;;;;;;;;;;24.60;99.90;;;;;;5080446;28;19912;-73
2021/07/16 10:13:48;;;;;;;;;;;24.90;99.90;;;;;;5092928;28;19908;-73
2021/07/16 10:16:14;;;;;;;;;;;24.90;99.90;;;;;;5092357;28;20349;-73
2021/07/16 10:18:40;;;;;;;;;;;24.50;99.90;;;;;;5091322;28;20207;-71
2021/07/16 10:21:06;;;;;;;;;;;24.20;99.90;;;;;;5092464;28;20002;-70
2021/07/16 10:23:32;;;;;;;;;;;23.70;99.90;;;;;;5092639;28;19908;-71
2021/07/16 10:25:58;;;;;;;;;;;23.30;99.90;;;;;;5092387;28;19912;-71
2021/07/16 10:28:30;;;;;;;;;;;23.00;99.90;;;;;;5092202;28;19909;-71
2021/07/16 10:30:55;;;;;;;;;;;22.50;99.90;;;;;;5091837;28;20381;-70
2021/07/16 10:33:33;;;;;;;;;;;22.30;99.90;;;;;;5089707;28;19912;-71
2021/07/16 10:35:59;;;;;;;;;;;22.20;99.90;;;;;;5086114;28;19908;-71
2021/07/16 10:38:32;;;;;;;;;;;22.00;99.90;;;;;;5092047;28;20208;-71
2021/07/16 10:40:59;;;;;;;;;;;21.90;99.90;;;;;;5091901;28;19908;-71
2021/07/16 10:43:24;;;;;;;;;;;21.80;99.90;;;;;;5091001;28;19912;-71
2021/07/16 10:45:50;;;;;;;;;;;21.70;99.90;;;;;;5091685;28;19916;-73
2021/07/16 10:48:17;;;;;;;;;;;21.60;99.90;;;;;;5091533;28;19965;-73
2021/07/16 10:50:44;;;;;;;;;;;21.60;99.90;;;;;;5092207;28;20403;-73
2021/07/16 10:53:14;;;;;;;;;;;21.70;99.90;;;;;;5090866;28;19916;-73
2021/07/16 10:55:39;;;;;;;;;;;21.60;99.90;;;;;;5091832;28;19965;-73
2021/07/16 10:58:20;;;;;;;;;;;21.60;99.90;;;;;;5091663;28;20132;-73
2021/07/16 11:00:47;;;;;;;;;;;21.70;99.90;;;;;;5091742;28;19969;-72
2021/07/16 11:03:13;;;;;;;;;;;22.20;99.90;;;;;;5089119;28;19908;-73
2021/07/16 11:05:39;;;;;;;;;;;22.60;99.90;;;;;;5090361;28;19944;-72
2021/07/16 11:08:24;;;;;;;;;;;22.70;99.90;;;;;;5090146;28;19958;-73
2021/07/16 11:10:50;;;;;;;;;;;22.80;99.90;;;;;;5089073;28;20312;-73
2021/07/16 11:13:34;;;;;;;;;;;22.80;99.90;;;;;;5105175;28;19918;-73
2021/07/16 11:16:26;;;;;;;;;;;22.80;99.90;;;;;;5110602;28;19907;-73
2021/07/16 11:18:52;;;;;;;;;;;23.00;99.90;;;;;;5112235;28;20137;-73
2021/07/16 11:21:36;;;;;;;;;;;23.20;99.90;;;;;;5112471;28;19961;-72
2021/07/16 11:24:02;;;;;;;;;;;23.30;99.90;;;;;;5112562;28;19970;-73
2021/07/16 11:26:27;;;;;;;;;;;23.40;99.90;;;;;;5111783;28;20392;-73
2021/07/16 11:28:53;;;;;;;;;;;23.50;99.90;;;;;;5112130;28;20360;-73
2021/07/16 11:31:18;;;;;;;;;;;23.60;99.90;;;;;;5112112;28;19914;-73
2021/07/16 11:33:54;;;;;;;;;;;23.60;99.90;;;;;;5089150;28;19979;-73
2021/07/16 11:36:19;;;;;;;;;;;23.70;99.90;;;;;;5083974;28;19914;-73
2021/07/16 11:38:54;;;;;;;;;;;23.90;99.90;;;;;;5091240;28;19994;-73
2021/07/16 11:41:32;;;;;;;;;;;23.90;99.90;;;;;;5091435;28;19961;-73
2021/07/16 11:44:01;;;;;;;;;;;24.10;99.90;;;;;;5091580;28;19985;-73
2021/07/16 11:46:27;;;;;;;;;;;24.10;99.90;;;;;;5090566;28;19921;-73
2021/07/16 11:48:52;;;;;;;;;;;24.10;99.90;;;;;;5091509;28;19955;-72
2021/07/16 11:51:25;;;;;;;;;;;24.20;99.90;;;;;;5091590;28;19908;-72
2021/07/16 11:53:51;;;;;;;;;;;24.00;99.90;;;;;;5091391;28;20070;-72
2021/07/16 11:56:16;;;;;;;;;;;24.10;99.90;;;;;;5091075;28;19908;-73
2021/07/16 11:58:48;;;;;;;;;;;24.50;99.90;;;;;;5089888;28;19908;-73
2021/07/16 12:01:14;;;;;;;;;;;25.10;99.90;;;;;;5085024;28;20003;-73
2021/07/16 12:03:39;;;;;;;;;;;25.80;99.90;;;;;;5087167;28;20069;-72
2021/07/16 12:06:06;;;;;;;;;;;26.10;99.90;;;;;;5090863;28;20443;-73
2021/07/16 12:08:34;;;;;;;;;;;26.00;99.90;;;;;;5090816;28;19912;-73
2021/07/16 12:11:02;;;;;;;;;;;25.70;99.90;;;;;;5080864;28;20441;-73
2021/07/16 12:13:28;;;;;;;;;;;25.40;99.90;;;;;;5090941;28;19919;-73
2021/07/16 12:16:03;;;;;;;;;;;24.90;99.90;;;;;;5089636;28;19915;-73
2021/07/16 12:18:30;;;;;;;;;;;24.40;99.90;;;;;;5090974;28;19908;-73
2021/07/16 12:20:56;;;;;;;;;;;24.00;99.90;;;;;;5091085;28;20001;-73
2021/07/16 12:23:22;;;;;;;;;;;23.60;99.90;;;;;;5089675;28;19912;-73
2021/07/16 12:25:48;;;;;;;;;;;23.60;99.90;;;;;;5090928;28;19912;-72
2021/07/16 12:28:18;;;;;;;;;;;23.40;99.90;;;;;;5090464;28;20277;-73
2021/07/16 12:30:44;;;;;;;;;;;23.20;99.90;;;;;;5089786;28;19970;-73
2021/07/16 12:33:10;;;;;;;;;;;23.10;99.90;;;;;;5088174;28;20361;-73
2021/07/16 12:35:40;;;;;;;;;;;23.10;99.90;;;;;;5086213;28;19912;-72
2021/07/16 12:38:07;;;;;;;;;;;23.00;99.90;;;;;;5090444;28;19934;-73
2021/07/16 12:40:33;;;;;;;;;;;22.90;99.90;;;;;;5090982;28;19908;-73
2021/07/16 12:42:58;;;;;;;;;;;22.80;99.90;;;;;;5091012;28;19912;-72
2021/07/16 12:45:33;;;;;;;;;;;22.80;99.90;;;;;;5089847;28;19958;-72
2021/07/16 12:47:58;;;;;;;;;;;22.70;99.90;;;;;;5091088;28;19961;-73
2021/07/16 12:50:24;;;;;;;;;;;22.70;99.90;;;;;;5091062;28;19912;-73
2021/07/16 12:53:02;;;;;;;;;;;22.80;99.90;;;;;;5092011;28;20288;-73
2021/07/16 12:55:35;;;;;;;;;;;22.80;99.90;;;;;;5094487;28;19912;-73
2021/07/16 12:58:02;;;;;;;;;;;22.80;99.90;;;;;;5094159;28;20411;-73
2021/07/16 13:00:27;;;;;;;;;;;22.50;99.90;;;;;;5094527;28;19998;-73
2021/07/16 13:03:11;;;;;;;;;;;22.30;99.90;;;;;;5090352;28;20059;-73
2021/07/16 13:05:36;;;;;;;;;;;22.20;99.90;;;;;;5093981;28;19919;-73
2021/07/16 13:08:12;;;;;;;;;;;22.30;99.90;;;;;;5093798;28;19912;-73
2021/07/16 13:11:07;;;;;;;;;;;22.30;99.90;;;;;;5091831;28;19908;-73
2021/07/16 13:13:34;;;;;;;;;;;22.30;99.90;;;;;;5084934;28;20329;-73
2021/07/16 13:16:07;;;;;;;;;;;22.40;99.90;;;;;;5093563;28;19951;-72
2021/07/16 13:18:32;;;;;;;;;;;22.60;99.90;;;;;;5093924;28;19985;-73
2021/07/16 13:20:58;;;;;;;;;;;22.60;99.90;;;;;;5093978;28;19933;-73
2021/07/16 13:23:23;;;;;;;;;;;22.70;99.90;;;;;;5093976;28;20276;-73
2021/07/16 13:25:53;;;;;;;;;;;22.80;99.90;;;;;;5093733;28;19919;-74
2021/07/16 13:28:19;;;;;;;;;;;23.10;99.90;;;;;;5092116;28;19916;-73
2021/07/16 13:30:44;;;;;;;;;;;23.40;99.90;;;;;;5093513;28;19908;-73
2021/07/16 13:33:10;;;;;;;;;;;23.40;99.90;;;;;;5090883;28;20380;-73
2021/07/16 13:35:35;;;;;;;;;;;23.50;99.90;;;;;;5088305;28;19908;-73
2021/07/16 13:38:01;;;;;;;;;;;23.60;99.90;;;;;;5092393;28;19912;-73
2021/07/16 13:40:27;;;;;;;;;;;23.70;99.90;;;;;;5093494;28;19915;-73
2021/07/16 13:42:52;;;;;;;;;;;23.80;99.90;;;;;;5093573;28;19912;-73
2021/07/16 13:45:18;;;;;;;;;;;23.70;99.90;;;;;;5093053;28;20297;-72
2021/07/16 13:47:43;;;;;;;;;;;23.60;99.90;;;;;;5093190;28;19948;-73
2021/07/16 13:50:09;;;;;;;;;;;23.40;99.90;;;;;;5093549;28;19977;-73
2021/07/16 13:52:34;;;;;;;;;;;23.30;99.90;;;;;;5093382;28;19909;-71
2021/07/16 13:55:00;;;;;;;;;;;23.20;99.90;;;;;;5092226;28;20517;-71
2021/07/16 13:57:25;;;;;;;;;;;23.20;99.90;;;;;;5093424;28;19908;-71
2021/07/16 13:59:51;;;;;;;;;;;23.20;99.90;;;;;;5093363;28;20381;-71
2021/07/16 14:02:16;;;;;;;;;;;23.10;99.90;;;;;;5095546;28;19983;-71
2021/07/16 14:04:42;;;;;;;;;;;22.80;99.90;;;;;;5093104;28;19908;-71
2021/07/16 14:07:07;;;;;;;;;;;22.70;99.90;;;;;;5092976;28;19919;-71
2021/07/16 14:09:33;;;;;;;;;;;22.70;99.90;;;;;;5090492;28;19999;-71
2021/07/16 14:11:59;;;;;;;;;;;22.60;99.90;;;;;;5092911;28;19916;-71
2021/07/16 14:14:24;;;;;;;;;;;22.60;99.90;;;;;;5092858;28;20549;-71